Share

Arkansaw, WI

SIGHT-SEA-ER II (KMNLAKEC4) Elev 659 ft | 44.47 °N, 92.30 °W | Change Station

Current weather conditions updated 4 minutes ago

Overcast
Overcast
39.9 °F
Feels Like 36 °F
N
5.0
Wind Variable Wind from NE
Gusts 5.0 mph
Sunrise 6:20 AM
Sunset 7:55 PM
Moon Waning Gibbous

Today is forecast to be Much Cooler than yesterday.

Pressure 29.93 in
Visibility 5.0 miles
Clouds Overcast 2500 ft
Windchill 36 °F
Dew Point 38 °F
Humidity 92%
Rainfall 0.15 in
Snow Depth Not available.
UV 0 out of 16
Pollen 1.40 out of 12
Air Quality Not available.
Flu Activity Sporadic
METAR KRGK 170835Z AUTO 01008G14KT 5SM BR OVC025 04/03 A2993 RMK AO2

More Conditions Fewer Conditions

Pressure 29.93 in
Visibility 5.0 miles
Clouds Overcast 2500 ft
Windchill 36 °F
Dew Point 38 °F
Humidity 92%
Rainfall 0.15 in
Snow Depth Not available.
UV 0 out of 16
Pollen 1.40 out of 12
Air Quality Not available.
Flu Activity Sporadic
METAR KRGK 170835Z AUTO 01008G14KT 5SM BR OVC025 04/03 A2993 RMK AO2

More Conditions Fewer Conditions

10-Day Forecast

Almanac

Astronomy

Apr. 17, 2014 Rise Set
Actual Time 6:20 AM CDT 7:55 PM CDT
Civil Twilight 5:50 AM CDT 8:26 PM CDT
Nautical Twilight 5:13 AM CDT 9:03 PM CDT
Astronomical Twilight 4:33 AM CDT 9:43 PM CDT
Moon 10:47 PM CDT 7:48 AM CDT
Length of Visible Light 14h 36m
Length of Day
13h 35m
Tomorrow will be 2m 55s longer.
Waning Gibbous, 95% of the Moon is Illuminated
Today
Waning Gibbous
Apr 22
Last Quarter
Apr 29
New
May 6
First Quarter
May 14
Full

Today's Extremes

State Highs State Lows

Community

  • Sunset over the Bay
    Sunset over the Bay
  • symphony in blue....
    symphony in blue....
  • Dawn Surprise
    Dawn Surprise
  • Yucca delight
    Yucca delight
  • Sunset inside of the Ocean
    Sunset inside of the Ocean

WunderPhotos

Upload Photos

1,701,875 photos uploaded!

WunderBlogs® & News

Nearby

Snow Depth

Station Depth Elevation
No new snow has been reported.

Coastal Water Temperatures

Place Temperature
No Stations Reporting

Earthquake Activity

City Distance Mag. Time & Date
No recent earthquake activity has been reported nearby.
Minimum magnitude displayed is 2.5.

Nearby Weather Stations

Station Location Temp. Windchill Dew Point Humidity Wind Precip. Elev Updated Type
SIGHT-SEA-ER II, Lake City, MN 39.9 °F 36 °F 38 °F 92% NE  at  5.0 mph 0.00 in / hr 659 ft 3:46 AM CDT Normal
Rics Igloo7, Lake City, MN 39.9 °F 36 °F 38 °F 94% NW  at  6.0 mph 0.00 in / hr 728 ft 3:50 AM CDT Rapid Fire
WIDOT Knapp - I-94 @ CTH Q, Knapp, WI 36 °F 29 °F 35 °F 99% NNE  at  9 mph 0.00 in / hr 1210 ft 2:57 AM CDT MADIS
Beldenville, WI 35.0 °F 29 °F 34 °F 98% NNW  at  8.0 mph 0.00 in / hr 1070 ft 3:37 AM CDT Normal
MesoWest RUSK , Menomonie, WI 33 °F 33 °F - - North  at  - 0.00 in / hr 956 ft 2:55 AM CDT MADIS

Show More Stations Show Fewer Stations

What do you think?

We're not finished. Please let us know what you like, what you don't like, and what you are still missing.